BADAN METEOROLOGI KLIMATOLOGI
DAN GEOFISIKA
Stasiun Meterologi Klas I
Frans Kaisiepo Biak
MET/SPECIAL REPORT


MET REPORT WABB 221430Z WIND 330/5KT VRB BTN 150/ AND 330/ VIS 10KM CLD FEW 1800FT T26 DP24 QNH 1010HPA QFE 1009HPA TREND NOSIG=

MET REPORT WABB 221500Z WIND VRB BTN 040/ AND 220/2KT VIS 10KM CLD FEW 1800FT T26 DP24 QNH 1011HPA QFE 1009HPA TREND NOSIG=

MET REPORT WABB 221530Z WIND 330/5KT VRB BTN 150/ AND 330/ VIS 10KM CLD FEW 1800FT T26 DP24 QNH 1011HPA QFE 1009HPA TREND NOSIG=

MET REPORT WABB 221600Z WIND VRB BTN 100/ AND 280/2KT VIS 10KM CLD FEW 1800FT T26 DP24 QNH 1010HPA QFE 1008HPA TREND NOSIG=

MET REPORT WABB 221630Z WIND 330/5KT VRB BTN 150/ AND 330/ VIS 10KM CLD FEW 1800FT T26 DP24 QNH 1010HPA QFE 1008HPA TREND NOSIG=

METAR/SPECI


METAR WABB 221500Z VRB02KT 9999 FEW018 26/24 Q1011 NOSIG=

METAR WABB 221530Z 33005KT 150V330 9999 FEW018 26/24 Q1011 NOSIG=

METAR WABB 221600Z VRB02KT 9999 FEW018 26/24 Q1010 NOSIG=

METAR WABB 221630Z 33005KT 150V330 9999 FEW018 26/24 Q1010 NOSIG=

METAR WABB 221130Z 00000KT 9999 FEW018 FEW100 27/23 Q1010=

TAFOR


TAF WABB 211700Z 2118/2224 00000KT 9999 SCT018
BECMG 2122/2124 32006KT=

TAF WABO 211700Z 2118/2218 03006KT 4000 RA FEW012CB SCT013
BECMG 2120/2122 9999 NSW SCT013=

TAF WAYE 211700Z 2118/2218 00000KT 4000 SCT009
BECMG 2122/2124 26006KT 8000=

TAF WABI 211700Z 2118/2218 16004KT 4000 SCT016
BECMG 2122/2124 30007KT 9999=

TAF WAYY 211700Z 2118/2218 18005KT 9000 SCT016
TEMPO 2118/2120 5000 RA=


Stasiun Meteorologi Klas I Frans Kaisiepo Biak
Jl.Moh Yamin
Telp. (0981)25373-22824
PO.Box 132 - Biak 98101
Email : stamet.biak@bmkg.go.id

Layanan 1 x 24 jam
Telp. (0981)21742 (Forecaster Onduty)
WhatsApp (+628114822994)
Email : forecaster.biak@gmail.com

Design by : Eko | Herald
Stasiun Meteorologi Klas I Frans Kaisiepo Biak